Sioux Falls, SD (57101)

1:17 AM CDT on May 23, 2017 (GMT -0500)
Leaders | | Change Station

Elev 1355 ft 43.56 °N, 96.69 °W | Updated 1 second ago

Partly Cloudy
Partly Cloudy
49.4 °F
Feels Like 48 °F
N
5.0
Wind Variable Wind from NNW

Today
High -- | Low -- °F
--% Chance of Precip.
Yesterday
High -- | Low -- °F
Precip. -- in
Pressure 29.93 in
Visibility 10.0 miles
Clouds Few 6000 ft
Windchill 48 °F
Dew Point 49 °F
Humidity 98%
Rainfall 0.00 in
Snow Depth Not available.
5:54 AM 8:53 PM
Waning Crescent, 10% visible
METAR KFSD 230556Z AUTO 33015KT 10SM FEW060 10/07 A2992 RMK AO2 RAB14E23 SLP134 P0000 60000 T01000067 10122 20100 401830089 56002
Pressure 29.93 in
Visibility 10.0 miles
Clouds Few 6000 ft
Windchill 48 °F
Dew Point 49 °F
Humidity 98%
Rainfall 0.00 in
Snow Depth Not available.
5:54 AM 8:53 PM
Waning Crescent, 10% visible
METAR KFSD 230556Z AUTO 33015KT 10SM FEW060 10/07 A2992 RMK AO2 RAB14E23 SLP134 P0000 60000 T01000067 10122 20100 401830089 56002

Get Severe Weather Alerts

Thanks for signing up!

Be on the lookout for a verification email in your inbox.

You'll start receiving the daily forecast at 6 AM.

×

10-Day Weather Forecast

Almanac

Astronomy

May. 23, 2017 Rise Set
Actual Time
Civil Twilight
Nautical Twilight
Astronomical Twilight
Moon
Length of Visible Light
Length of Day
Tomorrow will be .
, % of the Moon is Illuminated

Today's Extremes

State Highs State Lows

Community

WunderPhotos

Category 6

Welcome to Category 6. This is the collective home for Weather Underground's featured writeups by Dr. Jeff Masters (right), Bob Henson (left), Chris Burt, and other regular contributors.

Nearby

Air Quality

  Air Quality AQ Index Pollutant
Not available.

Snow Depth

Station Depth Elevation

Earthquake Activity

City Distance Mag. Time & Date
Minimum magnitude displayed is 2.5.

Coastal Water Temperatures

Place Temperature

Stations

Nearby Weather Stations

Station Location Temp. Windchill Dew Point Humidity Wind Precip. Elev Updated Type
                   

Watches & Warnings

There are currently no watches in effect.